U27157 / G-EZWL 7700 Squawk Report (24th of April, 2019)

Aircraft A320 Reg No. G-EZWL Age 5 years old
Model A320 Jet engines 2 First flight 05-07-13
Registered 11-07-13 Rollout 07-13 Delivered 11-07-13
Construction No. 5702 Line No. N/A Series 214(SL)
ADSHEX 40690D Airline name easyJet Owner N/A
Airfield based Luton~Beds~G First tracked 2017-07-13 07:51:00

Flight history for G-EZWL

Route Flight No Date Playback
Gatwick (LGW) - Copenhagen Airport (CPH) U28269 2019-05-23 17:46:00
Alicante (ALC) - Gatwick (LGW) U28660 2019-05-23 16:46:00
Gatwick (LGW) - Alicante (ALC) U28659 2019-05-23 07:07:00
Pafos Intl (PFO) - Gatwick (LGW) U28936 2019-05-23 04:49:00
Gatwick (LGW) - Pafos Intl (PFO) U28935 2019-05-22 20:07:00
Luqa (MLA) - Gatwick (LGW) U28824 2019-05-22 13:59:00
Gatwick (LGW) - Luqa (MLA) U28823 2019-05-22 08:11:00
Tenerife Sur (TFS) - Gatwick (LGW) U28710 2019-05-22 05:23:00
Gatwick (LGW) - Tenerife Sur (TFS) U28709 2019-05-21 20:54:00
Valencia (VLC) - Gatwick (LGW) U28222 2019-05-21 15:40:00
Gatwick (LGW) - Valencia (VLC) U28221 2019-05-21 11:19:00
Barajas (MAD) - Gatwick (LGW) U28274 2019-05-21 08:26:00
Gatwick (LGW) - Barajas (MAD) U28283 2019-05-21 05:07:00
Cote D Azur (NCE) - Gatwick (LGW) U28356 2019-05-20 17:46:00
Gatwick (LGW) - Cote D Azur (NCE) U28355 2019-05-20 15:23:00
Almeria (LEI) - Gatwick (LGW) U28164 2019-05-20 13:42:00
Gatwick (LGW) - Almeria (LEI) U28163 2019-05-20 06:52:00
Malaga (AGP) - Gatwick (LGW) U28612 2019-05-20 04:29:00
Gatwick (LGW) - Malaga (AGP) U28611 2019-05-19 20:14:00
Dionysios Solomos (ZTH) - Gatwick (LGW) U28746 2019-05-19 16:31:00
Time Lat Lon Altitude Heading Speed Vertical Rate
2019-04-24 14:49:50 GMT 53.359512 -2.278371 0 5 12 0
2019-04-24 14:49:10 GMT 53.357742 -2.276694 0 331 13 0
2019-04-24 14:49:00 GMT 53.357265 -2.276367 0 340 12 0
2019-04-24 14:48:50 GMT 53.356777 -2.276068 0 351 10 0
2019-04-24 14:48:44 GMT 53.356522 -2.276093 0 25 10 0
2019-04-24 14:48:40 GMT 53.356350 -2.276289 0 42 10 0
2019-04-24 14:48:34 GMT 53.356186 -2.276553 0 45 10 0
2019-04-24 14:48:28 GMT 53.355995 -2.276858 0 45 10 0
2019-04-24 14:48:23 GMT 53.355846 -2.277113 0 45 10 0
2019-04-24 14:48:18 GMT 53.355659 -2.277381 0 45 10 0
2019-04-24 14:48:14 GMT 53.355526 -2.277623 0 45 10 0
2019-04-24 14:48:08 GMT 53.355320 -2.277956 0 45 10 0
2019-04-24 14:48:03 GMT 53.355183 -2.278189 0 42 10 0
2019-04-24 14:47:58 GMT 53.355034 -2.278431 0 45 10 0
2019-04-24 14:47:51 GMT 53.354790 -2.278815 0 45 10 0
2019-04-24 14:47:47 GMT 53.354671 -2.278997 0 45 10 0
2019-04-24 14:47:43 GMT 53.354523 -2.279259 0 45 11 0
2019-04-24 14:47:35 GMT 53.354256 -2.279683 0 45 11 0
2019-04-24 14:47:32 GMT 53.354176 -2.279820 0 45 11 0
2019-04-24 14:47:28 GMT 53.353970 -2.280134 0 45 11 0
2019-04-24 14:47:22 GMT 53.353832 -2.280370 0 45 10 0
2019-04-24 14:47:16 GMT 53.353626 -2.280703 0 45 9 0
2019-04-24 14:47:11 GMT 53.353489 -2.280919 0 45 8 0
2019-04-24 14:47:07 GMT 53.353416 -2.281057 0 45 8 0
2019-04-24 14:47:02 GMT 53.353275 -2.281279 0 42 8 0
2019-04-24 14:46:56 GMT 53.353134 -2.281468 0 42 8 0
2019-04-24 14:46:51 GMT 53.353031 -2.281664 0 36 8 0
2019-04-24 14:46:47 GMT 53.352901 -2.281784 0 11 10 0
2019-04-24 14:46:40 GMT 53.352577 -2.281864 0 5 12 0
2019-04-24 14:46:36 GMT 53.352367 -2.281900 0 5 13 0
2019-04-24 14:46:31 GMT 53.352070 -2.281939 0 5 12 0
2019-04-24 14:46:25 GMT 53.351788 -2.281986 0 2 11 0
2019-04-24 14:46:20 GMT 53.351498 -2.281978 0 348 11 0
2019-04-24 14:46:16 GMT 53.351326 -2.281900 0 334 10 0
2019-04-24 14:46:11 GMT 53.351086 -2.281664 0 320 15 0
2019-04-24 14:46:05 GMT 53.350819 -2.281299 0 320 14 0
2019-04-24 14:46:00 GMT 53.350376 -2.280683 0 320 13 0
2019-04-24 14:45:55 GMT 53.350376 -2.280683 0 320 13 0
2019-04-24 14:45:47 GMT 53.350021 -2.280212 0 320 12 0
2019-04-24 14:45:42 GMT 53.349819 -2.279946 0 320 10 0
2019-04-24 14:45:38 GMT 53.349689 -2.279764 0 323 7 0
2019-04-24 14:45:27 GMT 53.349586 -2.279643 0 320 2 0
2019-04-24 14:45:22 GMT 53.349586 -2.279624 0 320 2 0
2019-04-24 14:45:17 GMT 53.349586 -2.279643 0 320 2 0
2019-04-24 14:45:12 GMT 53.349586 -2.279623 0 320 2 0
2019-04-24 14:45:08 GMT 53.349586 -2.279624 0 320 2 0
2019-04-24 14:45:04 GMT 53.349586 -2.279623 0 320 2 0
2019-04-24 14:44:58 GMT 53.349586 -2.279624 0 320 2 0
2019-04-24 14:44:52 GMT 53.349586 -2.279623 0 320 2 0
2019-04-24 14:44:47 GMT 53.349575 -2.279623 0 320 0 0
2019-04-24 14:44:43 GMT 53.349564 -2.279582 0 320 0 0
2019-04-24 14:44:36 GMT 53.349495 -2.279487 0 320 2 0
2019-04-24 14:44:32 GMT 53.349438 -2.279428 0 320 0 0
2019-04-24 14:44:27 GMT 53.349415 -2.279388 0 320 0 0
2019-04-24 14:44:23 GMT 53.349380 -2.279349 0 320 0 0
2019-04-24 14:44:15 GMT 53.349331 -2.279279 0 320 0 0
2019-04-24 14:44:12 GMT 53.349323 -2.279271 0 320 0 0
2019-04-24 14:44:00 GMT 53.349255 -2.279173 0 323 0 0
2019-04-24 14:43:55 GMT 53.349243 -2.279153 0 323 0 0
2019-04-24 14:43:46 GMT 53.349236 -2.279158 0 323 2 0
2019-04-24 14:43:30 GMT 53.349243 -2.279153 0 323 2 0
2019-04-24 14:43:20 GMT 53.349236 -2.279158 0 323 2 0
2019-04-24 14:42:51 GMT 53.349243 -2.279153 0 323 2 0
2019-04-24 14:42:41 GMT 53.349243 -2.279173 0 323 2 0
2019-04-24 14:42:31 GMT 53.349243 -2.279153 0 323 1 0
2019-04-24 14:42:26 GMT 53.349232 -2.279173 0 323 1 0
2019-04-24 14:42:22 GMT 53.349243 -2.279173 0 323 1 0
2019-04-24 14:42:05 GMT 53.349232 -2.279153 0 323 1 0
2019-04-24 14:42:00 GMT 53.349236 -2.279158 0 323 1 0
2019-04-24 14:41:50 GMT 53.349232 -2.279153 0 323 1 0
2019-04-24 14:41:42 GMT 53.349236 -2.279158 0 323 1 0
2019-04-24 14:41:36 GMT 53.349236 -2.279138 0 323 1 0
2019-04-24 14:41:26 GMT 53.349232 -2.279153 0 323 1 0
2019-04-24 14:41:11 GMT 53.349236 -2.279138 0 323 1 0
2019-04-24 14:41:01 GMT 53.349243 -2.279133 0 323 1 0
2019-04-24 14:40:16 GMT 53.349243 -2.279153 0 323 0 0
2019-04-24 14:40:06 GMT 53.349236 -2.279158 0 323 0 0
2019-04-24 14:40:01 GMT 53.349243 -2.279153 0 323 0 0
2019-04-24 14:39:46 GMT 53.349236 -2.279158 0 323 0 0
2019-04-24 14:39:36 GMT 53.349251 -2.279158 0 323 0 0
2019-04-24 14:39:16 GMT 53.349236 -2.279158 0 323 0 0
2019-04-24 14:39:11 GMT 53.349251 -2.279158 0 323 0 0
2019-04-24 14:38:46 GMT 53.349251 -2.279158 0 323 0 0
2019-04-24 14:38:31 GMT 53.349251 -2.279158 0 323 0 0
2019-04-24 14:38:21 GMT 53.349236 -2.279158 0 323 0 0
2019-04-24 14:38:06 GMT 53.349236 -2.279158 0 323 0 0
2019-04-24 14:38:00 GMT 53.349243 -2.279153 0 323 0 0
2019-04-24 14:37:55 GMT 53.349236 -2.279158 0 323 0 0
2019-04-24 14:37:50 GMT 53.349232 -2.279153 0 323 0 0
2019-04-24 14:37:31 GMT 53.349236 -2.279158 0 323 0 0
2019-04-24 14:37:21 GMT 53.349201 -2.279118 0 323 4 0
2019-04-24 14:37:11 GMT 53.348911 -2.278721 0 323 12 0
2019-04-24 14:37:03 GMT 53.348492 -2.278249 0 340 14 0
2019-04-24 14:37:00 GMT 53.348373 -2.278172 0 348 13 0
2019-04-24 14:36:50 GMT 53.347816 -2.278229 0 25 15 0
2019-04-24 14:36:40 GMT 53.347141 -2.279259 0 50 27 0
2019-04-24 14:36:33 GMT 53.346489 -2.280632 0 50 36 0
2019-04-24 14:36:28 GMT 53.346107 -2.281409 0 50 41 0
2019-04-24 14:36:22 GMT 53.345318 -2.283037 0 50 50 0
2019-04-24 14:36:18 GMT 53.344757 -2.284207 0 50 55 0
2019-04-24 14:36:12 GMT 53.343361 -2.287079 0 50 74 0
2019-04-24 14:36:07 GMT 53.342686 -2.288452 0 50 82 0
2019-04-24 14:36:01 GMT 53.341072 -2.291787 0 50 100 0
2019-04-24 14:35:51 GMT 53.337902 -2.298340 0 50 130 0
2019-04-24 14:35:48 GMT 53.336773 -2.300666 0 50 140 0
2019-04-24 14:35:41 GMT 53.333771 -2.306893 800 51 148 -640
2019-04-24 14:35:37 GMT 53.332432 -2.309714 850 50 147 -832
2019-04-24 14:35:30 GMT 53.329220 -2.316338 975 51 147 -768
2019-04-24 14:35:27 GMT 53.327682 -2.319528 975 51 147 -768
2019-04-24 14:35:20 GMT 53.324936 -2.325224 1,075 51 145 -896
2019-04-24 14:35:17 GMT 53.323959 -2.327244 1,125 51 144 -704
2019-04-24 14:35:10 GMT 53.320633 -2.334124 1,225 50 144 -768
2019-04-24 14:35:07 GMT 53.319538 -2.336372 1,250 51 143 -640
2019-04-24 14:34:57 GMT 53.315392 -2.344935 1,350 51 143 -640
2019-04-24 14:34:49 GMT 53.312042 -2.351801 1,450 51 145 -832
2019-04-24 14:34:46 GMT 53.310745 -2.354370 1,500 51 144 -832
2019-04-24 14:34:43 GMT 53.309341 -2.357375 1,575 51 145 -768
2019-04-24 14:34:40 GMT 53.307617 -2.361091 1,600 51 145 -768
2019-04-24 14:34:35 GMT 53.305431 -2.365534 1,650 50 145 -640
2019-04-24 14:34:32 GMT 53.304546 -2.367392 1,750 50 145 -832
2019-04-24 14:34:29 GMT 53.302265 -2.372077 1,775 50 142 -640
2019-04-24 14:34:26 GMT 53.300915 -2.374743 1,775 50 142 -640
2019-04-24 14:34:23 GMT 53.299347 -2.378069 1,900 51 143 -768
2019-04-24 14:34:19 GMT 53.299347 -2.378069 1,850 52 143 -768
2019-04-24 14:34:16 GMT 53.298065 -2.380894 1,875 51 143 -768
2019-04-24 14:34:13 GMT 53.295044 -2.387172 2,000 51 144 -832
2019-04-24 14:34:09 GMT 53.295044 -2.387172 1,975 51 145 -832
2019-04-24 14:34:06 GMT 53.294037 -2.389212 2,025 50 145 -768
2019-04-24 14:34:03 GMT 53.292629 -2.392192 2,075 50 146 -768
2019-04-24 14:34:00 GMT 53.291142 -2.395100 2,075 49 149 -896
2019-04-24 14:33:57 GMT 53.290394 -2.396635 2,125 50 149 -896
2019-04-24 14:33:54 GMT 53.289047 -2.399336 2,150 50 150 -896
2019-04-24 14:33:51 GMT 53.287033 -2.403338 2,250 50 152 -896
2019-04-24 14:33:48 GMT 53.285927 -2.405683 2,275 51 153 -704
2019-04-24 14:33:45 GMT 53.284855 -2.407864 2,300 51 154 -768
2019-04-24 14:33:42 GMT 53.283459 -2.410853 2,325 51 153 -704
2019-04-24 14:33:38 GMT 53.281586 -2.414795 2,400 51 153 -768
2019-04-24 14:33:35 GMT 53.280350 -2.417385 2,425 51 154 -704
2019-04-24 14:33:32 GMT 53.278519 -2.421151 2,450 50 154 -768
2019-04-24 14:33:28 GMT 53.277054 -2.424055 2,525 51 155 -768
2019-04-24 14:33:25 GMT 53.275635 -2.427115 2,550 50 155 -768
2019-04-24 14:33:21 GMT 53.274101 -2.430240 2,575 50 155 -640
2019-04-24 14:33:18 GMT 53.272934 -2.432608 2,625 50 155 -768
2019-04-24 14:33:15 GMT 53.271168 -2.436218 2,725 50 154 -640
2019-04-24 14:33:12 GMT 53.268887 -2.440984 2,725 50 154 -704
2019-04-24 14:33:09 GMT 53.267025 -2.444700 2,750 50 154 -832
2019-04-24 14:33:05 GMT 53.267025 -2.444700 2,775 50 154 -704
2019-04-24 14:33:02 GMT 53.265152 -2.448617 2,800 50 154 -832
2019-04-24 14:32:59 GMT 53.264053 -2.450814 2,850 50 154 -960
2019-04-24 14:32:56 GMT 53.262360 -2.454267 2,900 50 154 -896
2019-04-24 14:32:53 GMT 53.261253 -2.456494 2,950 50 154 -960
2019-04-24 14:32:50 GMT 53.259705 -2.459603 3,050 51 153 -896
2019-04-24 14:32:47 GMT 53.258553 -2.461988 3,050 51 153 -896
2019-04-24 14:32:44 GMT 53.257298 -2.464573 3,100 50 154 -896
2019-04-24 14:32:41 GMT 53.255951 -2.467294 3,250 50 154 -896
2019-04-24 14:32:37 GMT 53.254040 -2.471278 3,200 50 155 -768
2019-04-24 14:32:34 GMT 53.252701 -2.474043 3,250 50 155 -832
2019-04-24 14:32:31 GMT 53.251339 -2.476852 3,350 51 156 -832
2019-04-24 14:32:27 GMT 53.249660 -2.480244 3,300 51 156 -832
2019-04-24 14:32:24 GMT 53.247070 -2.485735 3,375 51 157 -768
2019-04-24 14:32:21 GMT 53.247070 -2.485735 3,400 51 157 -832
2019-04-24 14:32:18 GMT 53.244827 -2.490365 3,475 51 159 -896
2019-04-24 14:32:13 GMT 53.243362 -2.493426 3,525 51 162 -768
2019-04-24 14:32:10 GMT 53.240158 -2.500017 3,600 51 162 -768
2019-04-24 14:32:07 GMT 53.240158 -2.500017 3,625 51 164 -1024
2019-04-24 14:32:04 GMT 53.238647 -2.503156 3,625 51 164 -1024
2019-04-24 14:32:01 GMT 53.237419 -2.505691 3,675 51 165 -960
2019-04-24 14:31:58 GMT 53.234070 -2.512809 3,775 51 166 -1024
2019-04-24 14:31:54 GMT 53.234070 -2.512809 3,800 50 166 -1024
2019-04-24 14:31:51 GMT 53.232742 -2.515555 3,850 50 166 -1024
2019-04-24 14:31:48 GMT 53.230957 -2.519165 3,875 50 166 -960
2019-04-24 14:31:45 GMT 53.229355 -2.522304 3,975 51 168 -896
2019-04-24 14:31:42 GMT 53.226654 -2.527876 4,000 50 169 -832
2019-04-24 14:31:39 GMT 53.226654 -2.527876 4,075 50 169 -832
2019-04-24 14:31:36 GMT 53.225361 -2.530491 4,100 50 169 -768
2019-04-24 14:31:33 GMT 53.223679 -2.533918 4,100 50 170 -704
2019-04-24 14:31:29 GMT 53.221848 -2.537606 4,175 50 172 -704
2019-04-24 14:31:26 GMT 53.220200 -2.540824 4,200 50 173 -704
2019-04-24 14:31:23 GMT 53.218781 -2.543727 4,250 50 175 -768
2019-04-24 14:31:20 GMT 53.216721 -2.547886 4,325 50 176 -768
2019-04-24 14:31:17 GMT 53.215485 -2.550398 4,300 50 176 -768
2019-04-24 14:31:13 GMT 53.213608 -2.554243 4,375 51 179 -896
2019-04-24 14:31:09 GMT 53.211071 -2.559491 4,425 51 179 -896
2019-04-24 14:31:06 GMT 53.209953 -2.561753 4,450 50 180 -960
2019-04-24 14:31:03 GMT 53.208023 -2.565700 4,550 51 181 -1088
2019-04-24 14:31:00 GMT 53.206924 -2.568054 4,550 51 181 -1088
2019-04-24 14:30:57 GMT 53.205345 -2.571285 4,625 51 182 -1152
2019-04-24 14:30:54 GMT 53.202301 -2.577550 4,725 50 182 -1216
2019-04-24 14:30:51 GMT 53.202301 -2.577550 4,775 50 181 -1280
2019-04-24 14:30:48 GMT 53.200272 -2.581706 4,800 50 181 -1216
2019-04-24 14:30:44 GMT 53.195335 -2.591804 4,975 51 181 -1216
2019-04-24 14:30:39 GMT 53.195335 -2.591804 4,975 51 181 -1216
2019-04-24 14:30:36 GMT 53.194061 -2.594421 5,150 51 181 -1152
2019-04-24 14:30:33 GMT 53.192822 -2.596974 5,275 50 181 -1024
2019-04-24 14:30:30 GMT 53.190586 -2.601579 5,200 50 181 -1024
2019-04-24 14:30:27 GMT 53.189144 -2.604568 5,375 50 187 -704
2019-04-24 14:30:24 GMT 53.187012 -2.608939 5,275 50 183 -896
2019-04-24 14:30:20 GMT 53.185699 -2.611596 5,325 50 183 -832
2019-04-24 14:30:17 GMT 53.183186 -2.616685 5,375 50 186 -768
2019-04-24 14:30:13 GMT 53.181976 -2.619108 5,400 50 187 -704
2019-04-24 14:30:10 GMT 53.180439 -2.622178 5,450 50 188 -768
2019-04-24 14:30:07 GMT 53.176388 -2.630337 5,500 50 191 -704
2019-04-24 14:30:03 GMT 53.176388 -2.630337 5,525 50 191 -768
2019-04-24 14:30:00 GMT 53.174469 -2.634208 5,600 51 192 -768
2019-04-24 14:29:57 GMT 53.173317 -2.636719 5,625 51 193 -640
2019-04-24 14:29:54 GMT 53.169434 -2.644880 5,675 51 194 -448
2019-04-24 14:29:51 GMT 53.169434 -2.644880 5,675 51 197 320
2019-04-24 14:29:48 GMT 53.167961 -2.647947 5,675 51 201 576
2019-04-24 14:29:45 GMT 53.164890 -2.654329 5,650 51 204 320
2019-04-24 14:29:38 GMT 53.161697 -2.660889 5,650 50 208 0
2019-04-24 14:29:35 GMT 53.160141 -2.664023 5,650 49 209 64
2019-04-24 14:29:32 GMT 53.158421 -2.667416 5,650 50 209 64
2019-04-24 14:29:29 GMT 53.154694 -2.674848 5,650 50 210 0
2019-04-24 14:29:23 GMT 53.152740 -2.678968 5,650 51 211 0
2019-04-24 14:29:20 GMT 53.150116 -2.684588 5,650 52 212 0
2019-04-24 14:29:17 GMT 53.149200 -2.686628 5,650 52 212 0
2019-04-24 14:29:14 GMT 53.147552 -2.690238 5,650 52 212 0
2019-04-24 14:29:11 GMT 53.145477 -2.694639 5,650 52 212 0
2019-04-24 14:29:07 GMT 53.143337 -2.699325 5,650 52 213 0
2019-04-24 14:29:04 GMT 53.141510 -2.703265 5,650 52 213 64
2019-04-24 14:29:01 GMT 53.139099 -2.708453 5,650 53 213 0
2019-04-24 14:28:57 GMT 53.136726 -2.713865 5,650 54 212 64
2019-04-24 14:28:54 GMT 53.135056 -2.717861 5,650 62 209 0
2019-04-24 14:28:50 GMT 53.131699 -2.727679 5,650 62 209 0
2019-04-24 14:28:46 GMT 53.131699 -2.727679 5,650 66 208 0
2019-04-24 14:28:42 GMT 53.129974 -2.739312 5,650 85 200 64
2019-04-24 14:28:39 GMT 53.129974 -2.739312 5,650 95 197 -64
2019-04-24 14:28:36 GMT 53.130020 -2.743208 5,650 97 197 -64
2019-04-24 14:28:33 GMT 53.130489 -2.748359 5,650 101 196 0
2019-04-24 14:28:30 GMT 53.130955 -2.751833 5,650 102 196 -64
2019-04-24 14:28:26 GMT 53.131805 -2.758118 5,650 102 196 -128
2019-04-24 14:28:23 GMT 53.132397 -2.762496 5,675 102 195 -192
2019-04-24 14:28:20 GMT 53.132858 -2.766279 5,650 102 195 -192
2019-04-24 14:28:17 GMT 53.133591 -2.771537 5,675 102 194 -256
2019-04-24 14:28:14 GMT 53.134323 -2.776873 5,675 102 194 -256
2019-04-24 14:28:11 GMT 53.134632 -2.779379 5,700 102 194 -384
2019-04-24 14:28:06 GMT 53.135750 -2.787458 5,725 102 195 -768
2019-04-24 14:28:03 GMT 53.136337 -2.791861 5,750 102 195 -960
2019-04-24 14:28:00 GMT 53.136818 -2.795293 5,875 102 197 -768
2019-04-24 14:27:56 GMT 53.137939 -2.803868 5,900 102 198 -704
2019-04-24 14:27:53 GMT 53.138309 -2.806361 5,950 103 204 -576
2019-04-24 14:27:50 GMT 53.138992 -2.811480 5,950 102 202 -704
2019-04-24 14:27:46 GMT 53.139984 -2.818559 6,025 103 203 -640
2019-04-24 14:27:43 GMT 53.140404 -2.821548 6,025 103 205 -576
2019-04-24 14:27:40 GMT 53.140961 -2.825748 6,100 103 208 -640
2019-04-24 14:27:37 GMT 53.142380 -2.835414 6,100 103 209 -640
2019-04-24 14:27:31 GMT 53.142929 -2.839417 6,125 103 210 -640
2019-04-24 14:27:28 GMT 53.143982 -2.846401 6,200 103 223 -832
2019-04-24 14:27:25 GMT 53.144547 -2.850306 6,225 103 216 -640
2019-04-24 14:27:22 GMT 53.145012 -2.853699 6,325 103 221 -768
2019-04-24 14:27:19 GMT 53.145897 -2.859596 6,275 103 219 -768
2019-04-24 14:27:16 GMT 53.146828 -2.865897 6,325 103 220 -768
2019-04-24 14:27:13 GMT 53.147339 -2.869370 6,325 103 221 -832
2019-04-24 14:27:10 GMT 53.148224 -2.875429 6,450 103 224 -832
2019-04-24 14:27:06 GMT 53.149017 -2.880841 6,475 103 226 -1216
2019-04-24 14:27:03 GMT 53.149887 -2.886501 6,500 103 226 -1216
2019-04-24 14:27:00 GMT 53.150505 -2.890858 6,925 105 223 -192
2019-04-24 14:26:57 GMT 53.152088 -2.901602 6,675 103 224 -1792
2019-04-24 14:26:54 GMT 53.152088 -2.901602 6,775 103 224 -1792
2019-04-24 14:26:51 GMT 53.152954 -2.907296 6,825 104 222 -1216
2019-04-24 14:26:45 GMT 53.154415 -2.916870 6,950 104 222 -768
2019-04-24 14:26:42 GMT 53.155197 -2.921814 6,975 104 224 -64
2019-04-24 14:26:38 GMT 53.157120 -2.933820 7,000 104 224 -64
2019-04-24 14:26:35 GMT 53.157120 -2.933820 7,000 104 224 0
2019-04-24 14:26:31 GMT 53.158047 -2.939570 7,000 104 225 0
2019-04-24 14:26:27 GMT 53.158932 -2.944982 7,000 104 226 64
2019-04-24 14:26:24 GMT 53.160690 -2.956107 7,000 105 227 64
2019-04-24 14:26:21 GMT 53.160690 -2.956107 7,000 104 228 64
2019-04-24 14:26:17 GMT 53.162247 -2.965759 7,000 104 229 -64
2019-04-24 14:26:12 GMT 53.164101 -2.977618 7,000 104 231 0
2019-04-24 14:26:09 GMT 53.164101 -2.977618 7,000 104 231 64
2019-04-24 14:26:06 GMT 53.164845 -2.982384 7,000 104 230 0
2019-04-24 14:26:03 GMT 53.165730 -2.987877 7,000 104 232 0
2019-04-24 14:26:00 GMT 53.166332 -2.991916 7,000 104 231 0
2019-04-24 14:25:56 GMT 53.168243 -3.004438 7,000 103 231 0
2019-04-24 14:25:53 GMT 53.168243 -3.004438 7,000 103 231 64
2019-04-24 14:25:50 GMT 53.169174 -3.010739 7,000 103 231 0
2019-04-24 14:25:46 GMT 53.170849 -3.021806 7,000 103 231 -64
2019-04-24 14:25:40 GMT 53.172337 -3.032146 7,000 103 232 0
2019-04-24 14:25:37 GMT 53.172337 -3.032146 7,000 103 232 0
2019-04-24 14:25:34 GMT 53.173267 -3.038447 7,000 103 232 0
2019-04-24 14:25:31 GMT 53.173691 -3.041408 7,000 103 232 64
2019-04-24 14:25:28 GMT 53.174759 -3.048868 7,000 103 233 0
2019-04-24 14:25:25 GMT 53.175385 -3.053336 7,000 103 233 0
2019-04-24 14:25:22 GMT 53.176949 -3.064378 7,000 103 233 0
2019-04-24 14:25:16 GMT 53.178295 -3.073748 7,000 103 233 0
2019-04-24 14:25:13 GMT 53.178295 -3.073748 7,000 103 234 64
2019-04-24 14:25:10 GMT 53.179321 -3.080938 7,000 103 234 0
2019-04-24 14:25:07 GMT 53.179928 -3.084977 7,000 103 234 0
2019-04-24 14:25:04 GMT 53.181046 -3.092328 7,000 103 235 0
2019-04-24 14:25:01 GMT 53.181694 -3.096933 7,000 104 235 0
2019-04-24 14:24:58 GMT 53.182205 -3.100342 7,000 103 235 0
2019-04-24 14:24:54 GMT 53.183441 -3.108582 7,000 102 236 0
2019-04-24 14:24:51 GMT 53.184071 -3.113089 7,000 103 236 0
2019-04-24 14:24:47 GMT 53.185089 -3.120117 7,000 103 236 0
2019-04-24 14:24:43 GMT 53.186142 -3.127808 7,000 102 235 0
2019-04-24 14:24:40 GMT 53.186771 -3.132638 7,000 101 235 64
2019-04-24 14:24:37 GMT 53.187237 -3.136516 7,000 100 236 64
2019-04-24 14:24:34 GMT 53.188019 -3.144209 7,000 98 235 64
2019-04-24 14:24:31 GMT 53.188351 -3.147987 7,000 94 236 0
2019-04-24 14:24:28 GMT 53.188679 -3.158812 7,000 90 237 64
2019-04-24 14:24:25 GMT 53.188679 -3.158812 7,000 87 237 0
2019-04-24 14:24:21 GMT 53.188248 -3.168143 7,000 83 238 0
2019-04-24 14:24:18 GMT 53.187935 -3.172060 7,000 81 239 0
2019-04-24 14:24:15 GMT 53.187469 -3.177482 7,000 81 239 -64
2019-04-24 14:24:11 GMT 53.186783 -3.185643 7,000 81 239 0
2019-04-24 14:24:08 GMT 53.186325 -3.190979 7,000 81 240 -64
2019-04-24 14:24:05 GMT 53.185913 -3.195766 7,000 81 240 0
2019-04-24 14:24:02 GMT 53.185455 -3.200867 7,000 82 241 0
2019-04-24 14:23:59 GMT 53.185047 -3.206392 7,000 82 241 0
2019-04-24 14:23:56 GMT 53.184673 -3.210674 7,000 83 241 -64
2019-04-24 14:23:53 GMT 53.184082 -3.219622 7,000 84 240 0
2019-04-24 14:23:49 GMT 53.183762 -3.225272 7,000 86 240 64
2019-04-24 14:23:45 GMT 53.183559 -3.231515 7,000 89 239 128
2019-04-24 14:23:42 GMT 53.183743 -3.238947 7,000 99 236 -64
2019-04-24 14:23:39 GMT 53.184162 -3.243148 7,000 105 234 0
2019-04-24 14:23:35 GMT 53.185188 -3.249449 7,000 109 233 0
2019-04-24 14:23:32 GMT 53.186863 -3.256154 7,000 121 232 64
2019-04-24 14:23:28 GMT 53.189281 -3.262616 7,000 130 231 64
2019-04-24 14:23:24 GMT 53.193611 -3.270371 7,000 139 231 -128
2019-04-24 14:23:21 GMT 53.193611 -3.270371 7,000 149 232 64
2019-04-24 14:23:18 GMT 53.196121 -3.273690 7,000 149 232 64
2019-04-24 14:23:15 GMT 53.198872 -3.276511 7,000 153 233 0
2019-04-24 14:23:12 GMT 53.201569 -3.278713 7,000 158 233 0
2019-04-24 14:23:08 GMT 53.206009 -3.280988 7,000 169 235 0
2019-04-24 14:23:05 GMT 53.209209 -3.281762 7,000 179 238 0
2019-04-24 14:23:02 GMT 53.214798 -3.281616 7,000 189 239 0
2019-04-24 14:22:58 GMT 53.216904 -3.281067 7,000 196 242 64
2019-04-24 14:22:55 GMT 53.220196 -3.279742 7,000 202 244 0
2019-04-24 14:22:52 GMT 53.225735 -3.275703 7,000 209 248 64
2019-04-24 14:22:49 GMT 53.225735 -3.275703 7,000 213 250 0
2019-04-24 14:22:46 GMT 53.229458 -3.271745 7,000 221 254 0
2019-04-24 14:22:43 GMT 53.231785 -3.268594 7,000 228 259 -128
2019-04-24 14:22:40 GMT 53.235462 -3.262212 7,000 232 261 -64
2019-04-24 14:22:36 GMT 53.237141 -3.258820 7,000 238 264 0
2019-04-24 14:22:33 GMT 53.239513 -3.252599 7,000 243 267 -64
2019-04-24 14:22:29 GMT 53.241531 -3.245361 7,000 253 272 64
2019-04-24 14:22:25 GMT 53.243088 -3.237279 7,000 258 275 0
2019-04-24 14:22:22 GMT 53.243889 -3.231111 7,000 262 276 64
2019-04-24 14:22:18 GMT 53.244354 -3.223356 7,000 270 281 -64
2019-04-24 14:22:15 GMT 53.244030 -3.210431 7,000 278 285 0
2019-04-24 14:22:09 GMT 53.243042 -3.201102 7,000 286 287 64
2019-04-24 14:22:06 GMT 53.242355 -3.197021 7,000 289 289 64
2019-04-24 14:22:00 GMT 53.239281 -3.184177 7,000 297 291 0
2019-04-24 14:21:57 GMT 53.237789 -3.179573 7,000 308 292 64
2019-04-24 14:21:54 GMT 53.234940 -3.172381 7,000 311 292 64
2019-04-24 14:21:51 GMT 53.231831 -3.166324 7,000 315 292 64
2019-04-24 14:21:48 GMT 53.229736 -3.162770 7,000 322 292 0
2019-04-24 14:21:45 GMT 53.226608 -3.158412 7,000 327 291 64
2019-04-24 14:21:42 GMT 53.223083 -3.154410 7,000 337 290 64
2019-04-24 14:21:39 GMT 53.219742 -3.151350 6,975 342 288 64
2019-04-24 14:21:36 GMT 53.214523 -3.147975 6,975 342 288 64
2019-04-24 14:21:33 GMT 53.208092 -3.145887 6,975 353 284 0
2019-04-24 14:21:27 GMT 53.204224 -3.145543 7,000 4 279 -64
2019-04-24 14:21:23 GMT 53.198456 -3.146129 7,000 5 279 0
2019-04-24 14:21:20 GMT 53.193832 -3.146955 7,000 6 278 0
2019-04-24 14:21:17 GMT 53.187790 -3.148054 7,000 6 277 0
2019-04-24 14:21:11 GMT 53.182343 -3.149231 7,000 7 277 64
2019-04-24 14:21:08 GMT 53.179642 -3.149859 7,000 8 276 0
2019-04-24 14:21:05 GMT 53.176903 -3.150491 7,000 8 277 64
2019-04-24 14:21:02 GMT 53.170990 -3.151978 7,000 9 276 -64
2019-04-24 14:20:58 GMT 53.167217 -3.153076 7,000 10 275 -64
2019-04-24 14:20:55 GMT 53.163528 -3.154253 13,000 12 274 0
2019-04-24 14:20:52 GMT 53.159767 -3.155580 13,000 16 273 0
2019-04-24 14:20:49 GMT 53.156372 -3.156954 7,000 16 273 0
2019-04-24 14:20:46 GMT 53.152973 -3.158489 7,000 17 272 0
2019-04-24 14:20:43 GMT 53.148376 -3.161002 7,000 22 269 0
2019-04-24 14:20:38 GMT 53.140045 -3.167515 7,000 29 264 64
2019-04-24 14:20:32 GMT 53.137070 -3.170890 7,000 37 260 0
2019-04-24 14:20:29 GMT 53.134026 -3.175372 7,000 45 255 0
2019-04-24 14:20:26 GMT 53.131256 -3.180699 7,000 74 241 0
2019-04-24 14:20:23 GMT 53.129883 -3.184152 7,000 63 246 0
2019-04-24 14:20:19 GMT 53.127415 -3.192498 7,000 65 245 64
2019-04-24 14:20:16 GMT 53.126717 -3.196214 7,000 84 237 0
2019-04-24 14:20:13 GMT 53.125992 -3.201651 7,000 78 239 0
2019-04-24 14:20:09 GMT 53.125599 -3.211320 7,000 94 235 -64
2019-04-24 14:20:06 GMT 53.125786 -3.216409 7,000 95 235 -64
2019-04-24 14:20:03 GMT 53.126129 -3.220956 7,000 99 234 -64
2019-04-24 14:20:00 GMT 53.127045 -3.227153 7,000 107 232 -64
2019-04-24 14:19:57 GMT 53.127457 -3.229431 7,000 108 232 -64
2019-04-24 14:19:54 GMT 53.128532 -3.234423 7,000 113 231 0
2019-04-24 14:19:51 GMT 53.131699 -3.244521 7,000 129 230 64
2019-04-24 14:19:48 GMT 53.133774 -3.249520 7,000 125 231 0
2019-04-24 14:19:45 GMT 53.133774 -3.249520 7,000 131 231 128
2019-04-24 14:19:42 GMT 53.136868 -3.255588 7,000 137 232 64
2019-04-24 14:19:39 GMT 53.138306 -3.257996 7,000 137 232 64
2019-04-24 14:19:36 GMT 53.140079 -3.260516 7,000 154 234 0
2019-04-24 14:19:32 GMT 53.143845 -3.264823 7,000 154 234 0
2019-04-24 14:19:29 GMT 53.146736 -3.267221 7,000 162 236 -64
2019-04-24 14:19:26 GMT 53.150208 -3.269374 7,000 162 236 -64
2019-04-24 14:19:22 GMT 53.154282 -3.271415 7,000 163 237 0
2019-04-24 14:19:18 GMT 53.158081 -3.273220 7,000 163 237 0
2019-04-24 14:19:14 GMT 53.163448 -3.275865 7,000 163 237 0
2019-04-24 14:19:11 GMT 53.165497 -3.276834 7,000 163 237 0
2019-04-24 14:19:08 GMT 53.169067 -3.278556 7,000 163 237 0
2019-04-24 14:19:05 GMT 53.171539 -3.279811 7,000 163 237 0
2019-04-24 14:19:02 GMT 53.176254 -3.282087 7,000 163 237 0
2019-04-24 14:18:58 GMT 53.182766 -3.285235 7,000 163 237 -64
2019-04-24 14:18:55 GMT 53.182766 -3.285235 7,000 163 237 -64
2019-04-24 14:18:51 GMT 53.186539 -3.287012 7,000 165 236 0
2019-04-24 14:18:48 GMT 53.189514 -3.288386 7,000 169 237 64
2019-04-24 14:18:45 GMT 53.195618 -3.291033 7,000 166 236 64
2019-04-24 14:18:42 GMT 53.195618 -3.291033 7,000 172 237 64
2019-04-24 14:18:39 GMT 53.200424 -3.292603 7,000 172 237 64
2019-04-24 14:18:36 GMT 53.202530 -3.292995 13,000 172 237 64
2019-04-24 14:18:33 GMT 53.209122 -3.292838 7,000 190 241 0
2019-04-24 14:18:27 GMT 53.216747 -3.289597 7,000 203 244 0
2019-04-24 14:18:23 GMT 53.216747 -3.289597 7,000 203 244 0
2019-04-24 14:18:20 GMT 53.220940 -3.286528 7,000 207 246 0
2019-04-24 14:18:17 GMT 53.222893 -3.284831 7,000 213 248 0
2019-04-24 14:18:14 GMT 53.225784 -3.281852 7,000 216 250 0
2019-04-24 14:18:11 GMT 53.229538 -3.277143 7,025 224 253 0
2019-04-24 14:18:05 GMT 53.233841 -3.270081 7,000 232 256 0
2019-04-24 14:18:02 GMT 53.236038 -3.265529 7,000 235 258 0
2019-04-24 14:17:59 GMT 53.240257 -3.253730 7,000 243 262 0
2019-04-24 14:17:56 GMT 53.240257 -3.253730 7,000 246 265 0
2019-04-24 14:17:53 GMT 53.241394 -3.249363 7,000 250 267 64
2019-04-24 14:17:50 GMT 53.242722 -3.243164 7,000 257 271 0
2019-04-24 14:17:46 GMT 53.243774 -3.235709 7,000 264 274 0
2019-04-24 14:17:42 GMT 53.244324 -3.228489 13,000 337 289 0
2019-04-24 14:17:39 GMT 53.244370 -3.220799 7,000 274 279 0
2019-04-24 14:17:36 GMT 53.243820 -3.211775 7,000 286 283 0
2019-04-24 14:17:33 GMT 53.243378 -3.208008 7,000 285 283 0
2019-04-24 14:17:29 GMT 53.241211 -3.196629 7,000 295 287 -64
2019-04-24 14:17:25 GMT 53.239887 -3.191690 7,000 300 288 0
2019-04-24 14:17:22 GMT 53.237686 -3.185015 7,000 307 289 0
2019-04-24 14:17:19 GMT 53.235580 -3.179993 7,000 310 290 64
2019-04-24 14:17:15 GMT 53.232468 -3.173793 7,000 318 290 64
2019-04-24 14:17:12 GMT 53.229549 -3.169071 7,000 323 290 64
2019-04-24 14:17:09 GMT 53.226154 -3.164709 7,000 329 290 0
2019-04-24 14:17:06 GMT 53.222057 -3.160508 7,000 331 290 64
2019-04-24 14:17:03 GMT 53.218735 -3.157942 7,000 340 288 64
2019-04-24 14:17:00 GMT 53.216583 -3.156451 6,975 340 288 64
2019-04-24 14:16:57 GMT 53.210037 -3.153469 7,000 347 287 -64
2019-04-24 14:16:53 GMT 53.205002 -3.152291 7,000 356 284 -128
2019-04-24 14:16:47 GMT 53.198547 -3.151784 7,000 0 282 64
2019-04-24 14:16:43 GMT 53.193798 -3.151703 7,000 0 281 64
2019-04-24 14:16:40 GMT 53.189655 -3.151703 7,000 0 280 0
2019-04-24 14:16:37 GMT 53.184677 -3.151664 7,000 0 280 0
2019-04-24 14:16:34 GMT 53.181702 -3.151664 7,000 0 280 64
2019-04-24 14:16:31 GMT 53.177086 -3.151703 7,000 0 280 0
2019-04-24 14:16:27 GMT 53.168701 -3.151664 7,000 0 279 0
2019-04-24 14:16:24 GMT 53.168701 -3.151664 7,000 0 279 0
2019-04-24 14:16:21 GMT 53.164581 -3.151585 7,000 0 279 -64
2019-04-24 14:16:18 GMT 53.160461 -3.151507 7,000 0 279 0
2019-04-24 14:16:15 GMT 53.153625 -3.151461 7,000 359 279 -128
2019-04-24 14:16:12 GMT 53.148365 -3.151299 7,000 359 279 -128
2019-04-24 14:16:09 GMT 53.148365 -3.151299 7,000 359 279 -128
2019-04-24 14:16:05 GMT 53.144268 -3.151218 7,025 359 279 64
2019-04-24 14:16:02 GMT 53.140457 -3.151036 7,025 359 279 64
2019-04-24 14:15:59 GMT 53.132721 -3.150879 7,025 0 278 0
2019-04-24 14:15:56 GMT 53.132721 -3.150879 7,025 0 277 64
2019-04-24 14:15:53 GMT 53.129196 -3.150879 7,000 3 275 64
2019-04-24 14:15:50 GMT 53.125626 -3.151036 7,000 5 276 64
2019-04-24 14:15:46 GMT 53.119221 -3.152430 7,000 13 273 0
2019-04-24 14:15:43 GMT 53.116337 -3.153642 7,000 18 270 -64
2019-04-24 14:15:39 GMT 53.112518 -3.155742 7,000 22 269 0
2019-04-24 14:15:36 GMT 53.108376 -3.158812 7,000 29 265 -64
2019-04-24 14:15:33 GMT 53.102650 -3.164709 7,000 37 261 64
2019-04-24 14:15:26 GMT 53.098507 -3.170444 7,000 48 257 64
2019-04-24 14:15:23 GMT 53.095367 -3.175991 7,000 49 256 64
2019-04-24 14:15:20 GMT 53.093628 -3.179550 7,000 54 254 64
2019-04-24 14:15:17 GMT 53.091618 -3.184387 7,000 112 235 0
2019-04-24 14:15:14 GMT 53.090267 -3.188311 7,000 62 251 0
2019-04-24 14:15:11 GMT 53.088501 -3.194199 7,000 70 248 0
2019-04-24 14:15:08 GMT 53.086868 -3.201808 7,000 70 248 0
2019-04-24 14:15:04 GMT 53.086029 -3.207626 7,000 78 245 0
2019-04-24 14:15:01 GMT 53.085518 -3.212873 7,000 85 242 0
2019-04-24 14:14:58 GMT 53.085285 -3.217189 7,000 88 241 0
2019-04-24 14:14:55 GMT 53.085194 -3.225429 7,000 97 239 0
2019-04-24 14:14:52 GMT 53.085381 -3.229824 7,000 97 239 0
2019-04-24 14:14:49 GMT 53.085751 -3.234846 7,000 102 238 0
2019-04-24 14:14:43 GMT 53.087219 -3.245163 7,000 112 235 0
2019-04-24 14:14:40 GMT 53.088963 -3.252581 7,000 127 233 0
2019-04-24 14:14:37 GMT 53.089474 -3.254386 7,000 117 234 0
2019-04-24 14:14:34 GMT 53.093124 -3.264542 7,000 130 232 0
2019-04-24 14:14:28 GMT 53.095715 -3.269887 7,000 133 232 0
2019-04-24 14:14:23 GMT 53.099392 -3.275945 7,000 139 232 64
2019-04-24 14:14:20 GMT 53.101952 -3.279500 7,000 142 232 64
2019-04-24 14:14:17 GMT 53.103626 -3.281438 7,000 151 234 64
2019-04-24 14:14:14 GMT 53.107590 -3.285304 7,000 151 234 64
2019-04-24 14:14:11 GMT 53.110050 -3.287336 7,000 158 234 0
2019-04-24 14:14:06 GMT 53.115967 -3.290719 7,000 163 235 64
2019-04-24 14:14:03 GMT 53.121689 -3.292506 7,000 175 238 -64
2019-04-24 14:14:00 GMT 53.125717 -3.292995 7,000 182 240 0
2019-04-24 14:13:56 GMT 53.125717 -3.292995 7,000 178 240 -64
2019-04-24 14:13:53 GMT 53.132118 -3.293071 7,000 181 240 0
2019-04-24 14:13:47 GMT 53.136383 -3.293073 7,000 181 240 0
2019-04-24 14:13:44 GMT 53.138775 -3.292990 7,000 181 240 0
2019-04-24 14:13:41 GMT 53.142059 -3.292916 7,000 182 240 0
2019-04-24 14:13:38 GMT 53.145630 -3.292838 7,000 182 240 0
2019-04-24 14:13:35 GMT 53.148922 -3.292667 7,000 182 240 0
2019-04-24 14:13:32 GMT 53.151997 -3.292586 7,000 182 240 0
2019-04-24 14:13:29 GMT 53.155533 -3.292425 7,000 182 240 -64
2019-04-24 14:13:26 GMT 53.158859 -3.292210 7,000 182 239 -64
2019-04-24 14:13:22 GMT 53.162609 -3.292102 7,000 182 239 0
2019-04-24 14:13:19 GMT 53.166615 -3.291859 7,000 182 239 0
2019-04-24 14:13:16 GMT 53.174805 -3.291455 7,000 182 239 0
2019-04-24 14:13:13 GMT 53.174805 -3.291455 7,000 182 238 0
2019-04-24 14:13:10 GMT 53.176296 -3.291375 7,000 182 239 0
2019-04-24 14:13:07 GMT 53.179832 -3.291213 7,000 182 239 0
2019-04-24 14:13:04 GMT 53.183090 -3.291052 7,000 182 240 -64
2019-04-24 14:13:01 GMT 53.186646 -3.290955 7,000 181 240 -64
2019-04-24 14:12:58 GMT 53.192596 -3.290798 7,000 181 241 -64
2019-04-24 14:12:52 GMT 53.196625 -3.290641 7,000 184 242 64
2019-04-24 14:12:49 GMT 53.199234 -3.290562 7,000 184 242 64
2019-04-24 14:12:46 GMT 53.203064 -3.290163 7,000 186 243 64
2019-04-24 14:12:43 GMT 53.205669 -3.289597 7,000 194 245 0
2019-04-24 14:12:40 GMT 53.210587 -3.287816 7,000 197 246 64
2019-04-24 14:12:37 GMT 53.214142 -3.285881 7,000 198 247 64
2019-04-24 14:12:33 GMT 53.218002 -3.283107 7,000 209 252 0
2019-04-24 14:12:30 GMT 53.220612 -3.280675 7,000 212 253 64
2019-04-24 14:12:27 GMT 53.222900 -3.278242 7,000 217 255 64
2019-04-24 14:12:24 GMT 53.229858 -3.268433 7,000 227 260 64
2019-04-24 14:12:20 GMT 53.229858 -3.268433 7,000 228 260 64
2019-04-24 14:12:17 GMT 53.232559 -3.263253 7,000 236 264 -64
2019-04-24 14:12:14 GMT 53.234253 -3.259466 7,000 238 264 0
2019-04-24 14:12:11 GMT 53.236721 -3.252680 7,000 250 268 -64
2019-04-24 14:12:08 GMT 53.238441 -3.246783 7,000 252 269 -64
2019-04-24 14:12:05 GMT 53.239517 -3.242301 7,000 255 270 -64
2019-04-24 14:12:02 GMT 53.240250 -3.238534 7,000 261 271 0
2019-04-24 14:11:59 GMT 53.241394 -3.231158 7,000 261 271 0
2019-04-24 14:11:56 GMT 53.241982 -3.225053 7,000 266 272 -64
2019-04-24 14:11:53 GMT 53.242214 -3.219156 7,000 279 275 0
2019-04-24 14:11:50 GMT 53.242081 -3.210205 7,000 277 274 0
2019-04-24 14:11:47 GMT 53.241749 -3.205665 7,000 281 275 0
2019-04-24 14:11:44 GMT 53.241028 -3.199533 7,000 286 276 0
2019-04-24 14:11:41 GMT 53.240021 -3.193726 7,000 297 279 64
2019-04-24 14:11:38 GMT 53.238693 -3.187840 7,025 297 279 64
2019-04-24 14:11:35 GMT 53.236488 -3.180865 7,000 303 280 64
2019-04-24 14:11:32 GMT 53.234531 -3.175776 7,000 307 280 0
2019-04-24 14:11:28 GMT 53.231277 -3.169556 7,000 315 282 64
2019-04-24 14:11:25 GMT 53.228622 -3.165397 7,000 323 282 64
2019-04-24 14:11:22 GMT 53.224991 -3.161074 7,000 330 282 64
2019-04-24 14:11:19 GMT 53.222103 -3.158246 7,000 334 282 64
2019-04-24 14:11:16 GMT 53.218048 -3.155352 7,000 344 282 64
2019-04-24 14:11:13 GMT 53.214569 -3.153469 7,000 346 282 64
2019-04-24 14:11:10 GMT 53.210793 -3.152188 7,000 356 281 -64
2019-04-24 14:11:07 GMT 53.205765 -3.151299 7,000 0 281 64
2019-04-24 14:11:04 GMT 53.201900 -3.151218 7,000 0 280 64
2019-04-24 14:11:00 GMT 53.193611 -3.151461 7,000 0 281 64
2019-04-24 14:10:53 GMT 53.189144 -3.151541 7,000 0 281 0
2019-04-24 14:10:50 GMT 53.185043 -3.151507 7,000 0 281 0
2019-04-24 14:10:47 GMT 53.180878 -3.151428 7,000 0 281 0
2019-04-24 14:10:43 GMT 53.175888 -3.151350 7,000 0 280 0
2019-04-24 14:10:39 GMT 53.170120 -3.151193 7,000 0 280 64
2019-04-24 14:10:36 GMT 53.166458 -3.151114 7,000 359 280 0
2019-04-24 14:10:32 GMT 53.160690 -3.150957 7,000 0 280 0
2019-04-24 14:10:29 GMT 53.156570 -3.150879 7,000 0 280 0
2019-04-24 14:10:26 GMT 53.149109 -3.150653 7,000 0 280 0
2019-04-24 14:10:23 GMT 53.149109 -3.150653 7,000 0 280 0
2019-04-24 14:10:20 GMT 53.142792 -3.150565 7,000 0 280 -64
2019-04-24 14:10:14 GMT 53.137527 -3.150565 7,000 0 279 64
2019-04-24 14:10:11 GMT 53.134552 -3.150643 7,000 0 279 0
2019-04-24 14:10:08 GMT 53.130936 -3.150722 7,000 3 279 128
2019-04-24 14:10:05 GMT 53.121597 -3.151742 7,000 8 277 0
2019-04-24 14:10:01 GMT 53.121597 -3.151742 7,000 14 275 0
2019-04-24 14:09:58 GMT 53.116802 -3.153480 7,000 16 275 0
2019-04-24 14:09:55 GMT 53.108654 -3.158812 7,000 24 271 0
2019-04-24 14:09:52 GMT 53.108654 -3.158812 7,000 28 269 0
2019-04-24 14:09:49 GMT 53.101913 -3.166024 7,000 36 266 0
2019-04-24 14:09:45 GMT 53.101913 -3.166024 7,000 40 264 0
2019-04-24 14:09:42 GMT 53.099529 -3.169313 7,000 47 261 64
2019-04-24 14:09:39 GMT 53.097435 -3.172625 7,000 70 251 0
2019-04-24 14:09:36 GMT 53.092873 -3.181798 7,000 56 257 0
2019-04-24 14:09:33 GMT 53.092873 -3.181798 7,000 59 255 0
2019-04-24 14:09:27 GMT 53.089325 -3.191910 7,000 64 254 0
2019-04-24 14:09:24 GMT 53.087799 -3.197649 7,000 72 249 0
2019-04-24 14:09:21 GMT 53.086487 -3.204575 7,000 78 246 0
2019-04-24 14:09:18 GMT 53.086079 -3.207380 7,000 80 245 0
2019-04-24 14:09:15 GMT 53.085342 -3.215714 7,000 86 242 0
2019-04-24 14:09:12 GMT 53.085159 -3.220520 7,000 91 240 0
2019-04-24 14:09:09 GMT 53.085526 -3.229904 7,000 94 239 0
2019-04-24 14:09:06 GMT 53.085526 -3.229904 7,000 99 238 0
2019-04-24 14:09:02 GMT 53.086395 -3.237915 7,000 104 236 0
2019-04-24 14:08:58 GMT 53.087585 -3.244629 7,000 110 236 0
2019-04-24 14:08:55 GMT 53.088497 -3.248500 7,000 114 235 0
2019-04-24 14:08:52 GMT 53.090057 -3.254166 7,000 123 234 0
2019-04-24 14:08:49 GMT 53.091751 -3.259201 7,000 123 234 0
2019-04-24 14:08:46 GMT 53.093674 -3.264008 7,000 130 234 0
2019-04-24 14:08:42 GMT 53.097015 -3.270856 7,000 134 234 64
2019-04-24 14:08:39 GMT 53.098984 -3.274083 7,000 139 234 -64
2019-04-24 14:08:35 GMT 53.101856 -3.278046 7,000 143 235 0
2019-04-24 14:08:32 GMT 53.103909 -3.280631 7,000 158 236 64
2019-04-24 14:08:29 GMT 53.107677 -3.284347 7,000 151 235 64
2019-04-24 14:08:26 GMT 53.109726 -3.286043 7,000 158 236 64
2019-04-24 14:08:23 GMT 53.114319 -3.288914 7,000 182 240 -64
2019-04-24 14:08:19 GMT 53.116791 -3.290013 7,000 172 237 -64
2019-04-24 14:08:16 GMT 53.122063 -3.291375 7,000 172 237 -64
2019-04-24 14:08:13 GMT 53.125168 -3.291661 7,000 177 238 -64
2019-04-24 14:08:10 GMT 53.126808 -3.291698 7,000 181 239 -64
2019-04-24 14:08:07 GMT 53.131256 -3.291582 7,000 182 239 0
2019-04-24 14:08:04 GMT 53.133682 -3.291504 7,000 182 239 0
2019-04-24 14:08:01 GMT 53.137894 -3.291347 7,000 182 239 0
2019-04-24 14:07:58 GMT 53.141243 -3.291132 7,000 182 239 0
2019-04-24 14:07:55 GMT 53.144257 -3.291033 7,000 182 240 0
2019-04-24 14:07:50 GMT 53.149670 -3.290728 7,000 182 240 0
2019-04-24 14:07:47 GMT 53.157257 -3.290405 7,000 182 240 0
2019-04-24 14:07:44 GMT 53.157257 -3.290405 7,000 182 241 0
2019-04-24 14:07:40 GMT 53.163864 -3.290082 7,000 182 241 0
2019-04-24 14:07:37 GMT 53.167450 -3.289921 7,000 182 241 0
2019-04-24 14:07:30 GMT 53.172012 -3.289759 7,000 182 241 0
2019-04-24 14:07:25 GMT 53.177227 -3.289597 7,000 181 241 0
2019-04-24 14:07:22 GMT 53.181274 -3.289517 7,000 181 241 -64
2019-04-24 14:07:19 GMT 53.183651 -3.289436 7,000 221 257 0
2019-04-24 14:07:15 GMT 53.188820 -3.289436 7,000 181 240 0
2019-04-24 14:07:12 GMT 53.193283 -3.289385 7,000 181 240 64
2019-04-24 14:07:09 GMT 53.194794 -3.289385 7,000 181 240 64
2019-04-24 14:07:06 GMT 53.198128 -3.289274 7,000 182 241 128
2019-04-24 14:07:03 GMT 53.201435 -3.289113 7,000 185 241 64
2019-04-24 14:07:00 GMT 53.204506 -3.288628 7,000 188 242 0
2019-04-24 14:06:55 GMT 53.210651 -3.286689 7,000 214 254 0
2019-04-24 14:06:52 GMT 53.213257 -3.285478 7,000 202 248 0
2019-04-24 14:06:48 GMT 53.218781 -3.281459 7,000 216 255 0
2019-04-24 14:06:45 GMT 53.221310 -3.279257 7,000 229 260 0
2019-04-24 14:06:41 GMT 53.226013 -3.273769 7,000 221 257 0
2019-04-24 14:06:38 GMT 53.227737 -3.271260 7,000 225 258 0
2019-04-24 14:06:35 GMT 53.230995 -3.265767 7,000 231 262 0
2019-04-24 14:06:32 GMT 53.233276 -3.261162 7,000 234 263 0
2019-04-24 14:06:29 GMT 53.235580 -3.255406 7,000 252 271 0
2019-04-24 14:06:26 GMT 53.236542 -3.252738 7,000 244 268 0
2019-04-24 14:06:23 GMT 53.238281 -3.246774 7,000 251 271 0
2019-04-24 14:06:20 GMT 53.239746 -3.240159 7,000 255 273 0
2019-04-24 14:06:16 GMT 53.241028 -3.232335 7,000 262 276 0
2019-04-24 14:06:13 GMT 53.241653 -3.226022 7,000 263 276 0
2019-04-24 14:06:10 GMT 53.241982 -3.219236 7,000 270 279 0
2019-04-24 14:06:06 GMT 53.241714 -3.210127 7,000 283 282 64
2019-04-24 14:06:02 GMT 53.240799 -3.200945 7,000 284 283 64
2019-04-24 14:05:58 GMT 53.239372 -3.192902 7,000 293 285 0
2019-04-24 14:05:54 GMT 53.237465 -3.185550 7,000 301 285 64
2019-04-24 14:05:51 GMT 53.233181 -3.174564 7,000 307 285 64
2019-04-24 14:05:48 GMT 53.233181 -3.174564 7,000 311 286 64
2019-04-24 14:05:45 GMT 53.229630 -3.168065 7,000 316 286 64
2019-04-24 14:05:41 GMT 53.223083 -3.159746 7,000 336 284 0
2019-04-24 14:05:38 GMT 53.223083 -3.159746 7,000 336 284 0
2019-04-24 14:05:35 GMT 53.219330 -3.156451 7,000 336 284 0
2019-04-24 14:05:31 GMT 53.215439 -3.153939 7,000 342 283 0
2019-04-24 14:05:28 GMT 53.210037 -3.151585 7,000 351 281 -64
2019-04-24 14:05:24 GMT 53.202923 -3.150330 7,000 0 279 -64
2019-04-24 14:05:16 GMT 53.196579 -3.150330 7,000 1 278 0
2019-04-24 14:05:13 GMT 53.190582 -3.150643 7,000 1 278 0
2019-04-24 14:05:10 GMT 53.189438 -3.150643 7,000 1 278 0
2019-04-24 14:05:07 GMT 53.184219 -3.150879 7,000 1 278 0
2019-04-24 14:05:04 GMT 53.181198 -3.151114 7,000 1 278 0
2019-04-24 14:05:01 GMT 53.176250 -3.151380 7,000 1 278 0
2019-04-24 14:04:57 GMT 53.172153 -3.151541 7,000 0 279 0
2019-04-24 14:04:54 GMT 53.163666 -3.151978 7,000 1 279 0
2019-04-24 14:04:51 GMT 53.163666 -3.151978 7,000 1 279 0
2019-04-24 14:04:45 GMT 53.156525 -3.152213 7,000 0 279 0
2019-04-24 14:04:42 GMT 53.151577 -3.152349 7,000 0 279 -64
2019-04-24 14:04:39 GMT 53.148548 -3.152430 7,000 0 279 0
2019-04-24 14:04:34 GMT 53.138123 -3.152268 7,000 359 279 0
2019-04-24 14:04:28 GMT 53.132908 -3.152188 7,000 359 279 0
2019-04-24 14:04:24 GMT 53.128326 -3.152056 7,000 6 276 0
2019-04-24 14:04:21 GMT 53.124893 -3.152134 7,000 9 276 0
2019-04-24 14:04:18 GMT 53.121368 -3.152527 7,000 4 277 0
2019-04-24 14:04:14 GMT 53.116241 -3.154018 7,000 19 271 0
2019-04-24 14:04:10 GMT 53.108421 -3.158408 7,000 24 268 0
2019-04-24 14:04:04 GMT 53.101410 -3.165240 7,000 38 261 0
2019-04-24 14:04:01 GMT 53.101410 -3.165240 7,000 118 238 0
2019-04-24 14:03:57 GMT 53.097252 -3.170929 7,000 46 258 0
2019-04-24 14:03:53 GMT 53.094818 -3.175278 7,000 53 255 0
2019-04-24 14:03:50 GMT 53.092361 -3.180542 7,000 58 251 0
2019-04-24 14:03:47 GMT 53.090744 -3.184662 7,000 61 251 0
2019-04-24 14:03:44 GMT 53.087769 -3.195038 7,000 69 247 0
2019-04-24 14:03:41 GMT 53.087769 -3.195038 7,000 75 245 -64
2019-04-24 14:03:38 GMT 53.086624 -3.200836 7,000 84 243 0
2019-04-24 14:03:34 GMT 53.085617 -3.208237 7,000 84 243 0
2019-04-24 14:03:31 GMT 53.085022 -3.221970 7,000 87 243 0
2019-04-24 14:03:28 GMT 53.085022 -3.221970 7,000 92 242 0
2019-04-24 14:03:23 GMT 53.085297 -3.229294 7,000 99 241 0
2019-04-24 14:03:20 GMT 53.085796 -3.234689 7,000 101 240 0
2019-04-24 14:03:17 GMT 53.086357 -3.238926 7,000 104 239 0
2019-04-24 14:03:12 GMT 53.087906 -3.247147 7,000 108 239 0
2019-04-24 14:03:09 GMT 53.089893 -3.254621 7,000 114 239 0
2019-04-24 14:03:06 GMT 53.090652 -3.257141 7,000 120 237 64
2019-04-24 14:03:02 GMT 53.095276 -3.268197 7,000 135 236 0
2019-04-24 14:02:59 GMT 53.095276 -3.268197 7,000 135 236 0
2019-04-24 14:02:56 GMT 53.097198 -3.271650 7,000 135 236 0
2019-04-24 14:02:53 GMT 53.100788 -3.277076 7,000 142 234 0
2019-04-24 14:02:49 GMT 53.103207 -3.280146 7,000 150 235 0
2019-04-24 14:02:46 GMT 53.106354 -3.283421 7,000 151 235 0
2019-04-24 14:02:43 GMT 53.108597 -3.285461 7,000 155 235 0
2019-04-24 14:02:40 GMT 53.113129 -3.288522 7,000 175 239 0
2019-04-24 14:02:36 GMT 53.116241 -3.290001 7,000 175 239 0
2019-04-24 14:02:33 GMT 53.119686 -3.291132 7,000 174 239 0
2019-04-24 14:02:30 GMT 53.122761 -3.291779 7,000 175 239 0
2019-04-24 14:02:27 GMT 53.131325 -3.291940 7,000 183 241 0
2019-04-24 14:02:23 GMT 53.131325 -3.291940 7,000 182 242 0
2019-04-24 14:02:20 GMT 53.133934 -3.291859 7,000 182 242 0
2019-04-24 14:02:17 GMT 53.139099 -3.291536 7,000 182 242 64
2019-04-24 14:02:13 GMT 53.141785 -3.291425 7,000 183 241 0
2019-04-24 14:02:10 GMT 53.145355 -3.291190 7,000 183 241 0
2019-04-24 14:02:07 GMT 53.148689 -3.290971 7,000 183 241 0
2019-04-24 14:02:04 GMT 53.152496 -3.290641 7,000 182 242 0
2019-04-24 14:01:58 GMT 53.158466 -3.290324 7,000 182 242 0
2019-04-24 14:01:55 GMT 53.163914 -3.290001 7,000 182 242 0
2019-04-24 14:01:51 GMT 53.166565 -3.289921 7,000 182 242 0
2019-04-24 14:01:47 GMT 53.171547 -3.289759 7,000 181 242 0
2019-04-24 14:01:44 GMT 53.175339 -3.289699 7,000 181 241 -64
2019-04-24 14:01:41 GMT 53.177490 -3.289621 7,000 181 241 -64
2019-04-24 14:01:38 GMT 53.180859 -3.289517 7,000 181 241 0
2019-04-24 14:01:35 GMT 53.184910 -3.289436 7,000 181 241 0
2019-04-24 14:01:32 GMT 53.187241 -3.289385 7,000 181 240 0
2019-04-24 14:01:29 GMT 53.190811 -3.289307 7,000 181 240 0
2019-04-24 14:01:26 GMT 53.194336 -3.289307 7,000 182 240 0
2019-04-24 14:01:22 GMT 53.198822 -3.289150 7,000 185 241 64
2019-04-24 14:01:19 GMT 53.202179 -3.288870 7,000 191 243 0
2019-04-24 14:01:16 GMT 53.205505 -3.288208 7,000 191 243 0
2019-04-24 14:01:12 GMT 53.211136 -3.286089 7,000 220 256 -64
2019-04-24 14:01:09 GMT 53.213211 -3.284993 7,000 203 247 0
2019-04-24 14:01:06 GMT 53.216858 -3.282558 7,000 208 250 0
2019-04-24 14:01:02 GMT 53.221031 -3.278934 7,000 213 252 0
2019-04-24 14:00:59 GMT 53.226990 -3.272068 7,000 217 255 0
2019-04-24 14:00:56 GMT 53.226990 -3.272068 7,000 219 256 -64
2019-04-24 14:00:53 GMT 53.229309 -3.268825 7,000 225 258 -64
2019-04-24 14:00:50 GMT 53.234905 -3.259466 7,000 227 260 64
2019-04-24 14:00:46 GMT 53.237549 -3.254150 7,000 232 262 0
2019-04-24 14:00:43 GMT 53.237549 -3.254150 7,000 234 263 -64
2019-04-24 14:00:40 GMT 53.239517 -3.249677 7,000 249 269 -64
2019-04-24 14:00:37 GMT 53.241001 -3.246137 7,000 238 264 0
2019-04-24 14:00:34 GMT 53.243050 -3.240563 7,000 240 265 0
2019-04-24 14:00:30 GMT 53.245564 -3.233373 7,000 244 266 0
2019-04-24 14:00:27 GMT 53.249149 -3.220610 7,000 247 269 0
2019-04-24 14:00:24 GMT 53.251244 -3.211481 7,000 252 271 0
2019-04-24 14:00:20 GMT 53.251244 -3.211481 7,000 255 273 0
2019-04-24 14:00:17 GMT 53.252014 -3.207615 7,000 294 287 0
2019-04-24 14:00:14 GMT 53.253105 -3.200737 7,025 256 273 64
2019-04-24 14:00:11 GMT 53.253891 -3.194510 7,000 270 280 0
2019-04-24 14:00:08 GMT 53.254303 -3.187448 7,000 270 280 0
2019-04-24 14:00:04 GMT 53.254303 -3.179914 7,000 282 284 0
2019-04-24 14:00:01 GMT 53.253990 -3.174322 7,000 301 289 0
2019-04-24 13:59:58 GMT 53.253021 -3.166966 7,000 288 286 0
2019-04-24 13:59:54 GMT 53.251152 -3.158569 7,000 297 288 0
2019-04-24 13:59:51 GMT 53.249771 -3.153861 7,000 301 289 0
2019-04-24 13:59:47 GMT 53.245880 -3.144523 7,000 316 289 0
2019-04-24 13:59:44 GMT 53.242355 -3.138480 7,000 320 290 0
2019-04-24 13:59:40 GMT 53.238441 -3.133446 7,000 338 287 64
2019-04-24 13:59:36 GMT 53.234718 -3.129892 7,000 345 285 64
2019-04-24 13:59:33 GMT 53.231880 -3.127791 7,000 338 287 64
2019-04-24 13:59:29 GMT 53.225922 -3.125061 7,000 7 276 64
2019-04-24 13:59:26 GMT 53.221729 -3.124156 7,000 7 276 64
2019-04-24 13:59:23 GMT 53.218140 -3.124119 7,000 7 276 64
2019-04-24 13:59:20 GMT 53.215668 -3.124512 6,975 14 272 0
2019-04-24 13:59:17 GMT 53.207253 -3.128599 7,000 29 263 -64
2019-04-24 13:59:14 GMT 53.207253 -3.128599 7,000 29 263 -64
2019-04-24 13:59:10 GMT 53.203674 -3.132124 7,000 37 258 -128
2019-04-24 13:59:06 GMT 53.199245 -3.138374 7,000 42 254 -128
2019-04-24 13:59:03 GMT 53.195297 -3.145778 7,000 49 247 0
2019-04-24 13:58:56 GMT 53.192184 -3.151899 7,000 49 246 0
2019-04-24 13:58:53 GMT 53.190262 -3.155661 7,000 49 246 0
2019-04-24 13:58:50 GMT 53.183277 -3.169152 7,000 49 247 64
2019-04-24 13:58:45 GMT 53.181835 -3.171979 7,000 48 247 64
2019-04-24 13:58:39 GMT 53.179138 -3.177011 7,000 48 247 64
2019-04-24 13:58:36 GMT 53.176666 -3.181673 7,000 48 250 896
2019-04-24 13:58:32 GMT 53.174202 -3.186278 7,000 47 249 0
2019-04-24 13:58:29 GMT 53.171860 -3.190430 6,975 47 249 64
2019-04-24 13:58:26 GMT 53.168976 -3.195452 6,975 46 249 128
2019-04-24 13:58:23 GMT 53.166641 -3.199533 6,975 46 248 256
2019-04-24 13:58:20 GMT 53.164749 -3.202838 6,950 46 249 576
2019-04-24 13:58:16 GMT 53.160736 -3.209970 6,900 47 247 768
2019-04-24 13:58:12 GMT 53.158081 -3.214835 6,875 48 248 832
2019-04-24 13:58:08 GMT 53.154510 -3.221579 6,825 48 249 896
2019-04-24 13:58:04 GMT 53.151901 -3.226449 6,750 49 253 768
2019-04-24 13:58:01 GMT 53.149109 -3.231785 6,700 49 253 768
2019-04-24 13:57:58 GMT 53.148132 -3.233696 6,700 49 256 704
2019-04-24 13:57:54 GMT 53.144688 -3.240401 6,625 49 261 704
2019-04-24 13:57:51 GMT 53.142220 -3.245329 6,575 49 266 640
2019-04-24 13:57:48 GMT 53.139542 -3.250541 6,550 49 269 576
2019-04-24 13:57:45 GMT 53.137516 -3.254619 6,525 49 270 640
2019-04-24 13:57:42 GMT 53.133957 -3.261370 6,500 48 275 704
2019-04-24 13:57:39 GMT 53.132862 -3.263424 6,450 41 282 768
2019-04-24 13:57:36 GMT 53.130112 -3.267962 6,450 40 282 768
2019-04-24 13:57:33 GMT 53.127136 -3.272042 6,400 35 285 768
2019-04-24 13:57:30 GMT 53.123646 -3.276107 6,350 28 288 832
2019-04-24 13:57:27 GMT 53.120499 -3.279184 6,350 28 288 832
2019-04-24 13:57:23 GMT 53.114521 -3.283620 6,225 17 292 896
2019-04-24 13:57:19 GMT 53.109074 -3.286285 6,225 10 295 896
2019-04-24 13:57:15 GMT 53.104370 -3.287659 6,150 322 303 704
2019-04-24 13:57:12 GMT 53.099995 -3.288224 6,100 357 299 768
2019-04-24 13:57:09 GMT 53.096466 -3.288208 6,075 356 300 704
2019-04-24 13:57:06 GMT 53.091152 -3.287345 6,025 349 302 640
2019-04-24 13:57:02 GMT 53.085842 -3.285383 5,975 342 304 704
2019-04-24 13:56:58 GMT 53.081635 -3.283005 5,950 337 304 704
2019-04-24 13:56:54 GMT 53.075417 -3.278006 5,900 329 304 704
2019-04-24 13:56:51 GMT 53.073303 -3.275986 5,875 325 304 704
2019-04-24 13:56:48 GMT 53.069832 -3.271964 5,850 322 303 704
2019-04-24 13:56:43 GMT 53.064560 -3.264008 5,750 224 258 704
2019-04-24 13:56:40 GMT 53.061729 -3.258859 5,725 307 300 704
2019-04-24 13:56:37 GMT 53.059448 -3.253758 5,700 306 300 704
2019-04-24 13:56:34 GMT 53.057076 -3.247559 5,650 296 297 768
2019-04-24 13:56:30 GMT 53.054142 -3.237435 5,600 289 296 832
2019-04-24 13:56:27 GMT 53.051605 -3.223114 5,500 278 290 768
2019-04-24 13:56:24 GMT 53.051605 -3.223114 5,525 281 292 768
2019-04-24 13:56:21 GMT 53.051193 -3.218842 5,500 276 289 768
2019-04-24 13:56:18 GMT 53.050919 -3.213654 5,475 273 287 704
2019-04-24 13:56:15 GMT 53.050873 -3.205643 5,425 266 284 704
2019-04-24 13:56:12 GMT 53.051193 -3.199692 5,400 260 281 704
2019-04-24 13:56:09 GMT 53.052139 -3.191528 5,350 253 277 640
2019-04-24 13:56:05 GMT 53.053757 -3.183823 5,300 245 273 576
2019-04-24 13:56:02 GMT 53.054947 -3.179245 5,300 241 270 576
2019-04-24 13:55:58 GMT 53.058151 -3.170776 5,250 229 262 576
2019-04-24 13:55:55 GMT 53.060474 -3.166024 5,200 225 260 576
2019-04-24 13:55:52 GMT 53.062473 -3.162650 5,200 222 258 576
2019-04-24 13:55:48 GMT 53.066154 -3.157549 5,150 217 255 704
2019-04-24 13:55:42 GMT 53.072811 -3.149309 5,075 219 256 640
2019-04-24 13:55:38 GMT 53.082596 -3.134613 4,650 224 258 640
2019-04-24 13:55:31 GMT 53.082596 -3.134613 4,950 224 258 640
2019-04-24 13:55:28 GMT 53.085705 -3.129769 4,950 224 258 640
2019-04-24 13:55:23 GMT 53.088730 -3.124983 4,825 224 258 704
2019-04-24 13:55:20 GMT 53.091751 -3.120346 4,650 224 257 0
2019-04-24 13:55:17 GMT 53.093620 -3.117449 4,825 224 258 704
2019-04-24 13:55:13 GMT 53.097481 -3.111312 4,725 224 257 640
2019-04-24 13:55:09 GMT 53.100449 -3.106698 4,725 224 257 640
2019-04-24 13:55:06 GMT 53.103241 -3.102382 4,700 224 257 512
2019-04-24 13:55:01 GMT 53.108414 -3.094221 4,650 224 257 0
2019-04-24 13:54:58 GMT 53.109695 -3.092259 4,650 224 257 0
2019-04-24 13:54:55 GMT 53.113544 -3.086270 4,650 224 257 -64
2019-04-24 13:54:51 GMT 53.116379 -3.081822 4,650 223 256 0
2019-04-24 13:54:48 GMT 53.119171 -3.077506 4,650 223 256 0
2019-04-24 13:54:45 GMT 53.121552 -3.073818 4,650 223 256 64
2019-04-24 13:54:42 GMT 53.123783 -3.070436 4,650 223 259 0
2019-04-24 13:54:39 GMT 53.127090 -3.065266 4,650 223 258 0
2019-04-24 13:54:36 GMT 53.129742 -3.061227 4,650 223 260 0
2019-04-24 13:54:30 GMT 53.135239 -3.052865 4,650 223 261 0
2019-04-24 13:54:27 GMT 53.137711 -3.049098 4,650 223 263 64
2019-04-24 13:54:24 GMT 53.139816 -3.045881 4,650 223 263 64
2019-04-24 13:54:20 GMT 53.144623 -3.038661 4,650 223 263 0
2019-04-24 13:54:17 GMT 53.146362 -3.036072 4,625 223 264 0
2019-04-24 13:54:14 GMT 53.149807 -3.030853 4,650 223 264 0
2019-04-24 13:54:11 GMT 53.151398 -3.028460 4,650 222 264 64
2019-04-24 13:54:08 GMT 53.156139 -3.021321 4,650 223 265 0
2019-04-24 13:54:05 GMT 53.157024 -3.020029 4,650 223 265 0
2019-04-24 13:54:01 GMT 53.161072 -3.013970 4,625 222 265 0
2019-04-24 13:53:58 GMT 53.163803 -3.009862 4,625 222 265 -64
2019-04-24 13:53:54 GMT 53.166939 -3.005245 4,625 222 266 0
2019-04-24 13:53:51 GMT 53.171036 -2.999106 4,650 222 264 0
2019-04-24 13:53:48 GMT 53.173595 -2.995309 4,650 222 264 -64
2019-04-24 13:53:45 GMT 53.175888 -2.991813 4,650 222 264 -64
2019-04-24 13:53:41 GMT 53.179962 -2.985692 4,650 222 263 0
2019-04-24 13:53:38 GMT 53.182674 -2.981738 4,650 223 263 0
2019-04-24 13:53:32 GMT 53.187469 -2.974470 4,650 223 262 64
2019-04-24 13:53:29 GMT 53.189796 -2.970913 4,625 223 263 0
2019-04-24 13:53:26 GMT 53.192215 -2.967116 4,625 224 263 0
2019-04-24 13:53:22 GMT 53.196396 -2.960658 4,625 224 263 -128
2019-04-24 13:53:19 GMT 53.198868 -2.956813 4,650 224 263 0
2019-04-24 13:53:16 GMT 53.202072 -2.951712 4,650 224 263 0
2019-04-24 13:53:13 GMT 53.204132 -2.948417 4,650 224 263 0
2019-04-24 13:53:10 GMT 53.208649 -2.941185 4,650 227 263 704
2019-04-24 13:53:07 GMT 53.209908 -2.939085 4,650 225 263 0
2019-04-24 13:53:04 GMT 53.216080 -2.929190 4,650 225 262 0
2019-04-24 13:52:59 GMT 53.216080 -2.929190 4,650 225 262 0
2019-04-24 13:52:56 GMT 53.218658 -2.924948 4,650 225 262 -64
2019-04-24 13:52:53 GMT 53.225315 -2.914043 4,650 225 261 0
2019-04-24 13:52:49 GMT 53.225315 -2.914043 4,650 225 261 0
2019-04-24 13:52:46 GMT 53.228210 -2.909258 4,650 225 262 -64
2019-04-24 13:52:43 GMT 53.230225 -2.905884 4,650 226 262 64
2019-04-24 13:52:38 GMT 53.233887 -2.899763 4,650 226 263 64
2019-04-24 13:52:35 GMT 53.237511 -2.893605 4,650 226 263 128
2019-04-24 13:52:32 GMT 53.239151 -2.890817 4,625 226 263 128
2019-04-24 13:52:27 GMT 53.245983 -2.878983 4,600 227 263 320
2019-04-24 13:52:24 GMT 53.245983 -2.878983 4,600 227 263 448
2019-04-24 13:52:21 GMT 53.249058 -2.873571 4,575 227 263 704
2019-04-24 13:52:18 GMT 53.251511 -2.869237 4,525 227 264 1088
2019-04-24 13:52:15 GMT 53.254898 -2.863194 4,475 227 263 1280
2019-04-24 13:52:12 GMT 53.256500 -2.860291 4,400 228 264 1600
2019-04-24 13:52:09 GMT 53.259888 -2.854248 4,325 228 265 1728
2019-04-24 13:52:06 GMT 53.261948 -2.850560 4,275 228 266 1920
2019-04-24 13:52:03 GMT 53.264698 -2.845621 4,150 228 267 2176
2019-04-24 13:52:00 GMT 53.267670 -2.840201 4,050 227 268 2432
2019-04-24 13:51:54 GMT 53.271881 -2.832746 3,825 226 265 2688
2019-04-24 13:51:51 GMT 53.277546 -2.823002 3,675 226 265 2496
2019-04-24 13:51:48 GMT 53.277546 -2.823002 3,550 188 204 704
2019-04-24 13:51:45 GMT 53.281178 -2.817024 3,425 224 259 1728
2019-04-24 13:51:42 GMT 53.282318 -2.815247 3,350 224 258 1664
2019-04-24 13:51:37 GMT 53.286205 -2.809188 3,250 221 250 1280
2019-04-24 13:51:34 GMT 53.289230 -2.804810 3,175 221 246 1280
2019-04-24 13:51:31 GMT 53.291466 -2.801756 3,100 219 242 1344
2019-04-24 13:51:28 GMT 53.293560 -2.799009 3,050 217 240 1216
2019-04-24 13:51:25 GMT 53.296555 -2.795314 3,000 215 233 768
2019-04-24 13:51:22 GMT 53.299240 -2.792385 2,950 195 211 896
2019-04-24 13:51:19 GMT 53.303059 -2.788992 2,925 205 218 768
2019-04-24 13:51:15 GMT 53.306076 -2.787074 2,875 195 211 896
2019-04-24 13:51:11 GMT 53.309715 -2.785761 2,750 172 190 960
2019-04-24 13:51:08 GMT 53.312119 -2.785427 2,775 179 198 832
2019-04-24 13:51:05 GMT 53.315578 -2.785600 2,750 172 190 960
2019-04-24 13:51:02 GMT 53.318745 -2.786407 2,700 169 188 1024
2019-04-24 13:50:59 GMT 53.321072 -2.787215 2,675 162 180 960
2019-04-24 13:50:54 GMT 53.324158 -2.788801 2,575 156 176 832
2019-04-24 13:50:51 GMT 53.326538 -2.790606 2,550 151 173 832
2019-04-24 13:50:48 GMT 53.328754 -2.793032 2,475 146 170 896
2019-04-24 13:50:45 GMT 53.330978 -2.796334 2,400 133 164 1344
2019-04-24 13:50:42 GMT 53.333359 -2.801985 2,350 124 161 1600
2019-04-24 13:50:39 GMT 53.333359 -2.801985 2,150 113 160 2048
2019-04-24 13:50:34 GMT 53.334480 -2.806684 2,100 101 161 2880
2019-04-24 13:50:31 GMT 53.334946 -2.810238 1,975 98 160 3008
2019-04-24 13:50:28 GMT 53.335178 -2.814196 1,875 91 161 3328
2019-04-24 13:50:24 GMT 53.335087 -2.818478 1,575 85 162 3392
2019-04-24 13:50:21 GMT 53.334946 -2.822194 1,450 85 162 3264
2019-04-24 13:50:18 GMT 53.334621 -2.828010 1,200 85 162 3200
2019-04-24 13:50:11 GMT 53.334274 -2.835336 925 85 167 2368
2019-04-24 13:50:04 GMT 53.333897 -2.844007 0 84 155
2019-04-24 13:50:01 GMT 53.333714 -2.848024 0 84 145
2019-04-24 13:49:53 GMT 53.333359 -2.855641 0 84 110
2019-04-24 13:49:48 GMT 53.333187 -2.859408 0 84 29
2019-04-24 13:49:43 GMT 53.333000 -2.863494 0 84 61
2019-04-24 13:49:39 GMT 53.332954 -2.864443 0 84 45
2019-04-24 13:49:34 GMT 53.332878 -2.866039 0 87 8
2019-04-24 13:49:13 GMT 53.332851 -2.866301 0 109 3
2019-04-24 13:49:06 GMT 53.332855 -2.866353 0 115 4
2019-04-24 13:48:51 GMT 53.333073 -2.866745 0 143 8
2019-04-24 13:48:44 GMT 53.333313 -2.867059 0 163 10
2019-04-24 13:48:39 GMT 53.333549 -2.867270 0 163 10
2019-04-24 13:48:23 GMT 53.334057 -2.867235 0 208 5
2019-04-24 13:48:18 GMT 53.334114 -2.867196 0 213 3
2019-04-24 13:48:08 GMT 53.334160 -2.867137 0 216 0
2019-04-24 13:47:47 GMT 53.334248 -2.867048 0 227 6
2019-04-24 13:47:38 GMT 53.334435 -2.866667 0 244 10
2019-04-24 13:47:26 GMT 53.334549 -2.865614 0 264 16
2019-04-24 13:47:15 GMT 53.334595 -2.864423 0 264 17
2019-04-24 13:47:10 GMT 53.334644 -2.863534 0 264 21
2019-04-24 13:47:06 GMT 53.334675 -2.862802 0 264 24
2019-04-24 13:47:00 GMT 53.334736 -2.861636 0 264 24
2019-04-24 13:46:57 GMT 53.334743 -2.861291 0 264 24
2019-04-24 13:46:48 GMT 53.334816 -2.859778 0 264 22
2019-04-24 13:46:44 GMT 53.334846 -2.859035 0 267 22
2019-04-24 13:46:35 GMT 53.334923 -2.857516 0 267 20
2019-04-24 13:46:27 GMT 53.334972 -2.856386 0 264 19
2019-04-24 13:46:23 GMT 53.334995 -2.855818 0 264 18
2019-04-24 13:46:13 GMT 53.335049 -2.854688 0 264 16
2019-04-24 13:46:01 GMT 53.335110 -2.853315 0 264 14
2019-04-24 13:45:51 GMT 53.335155 -2.852247 0 264 12
2019-04-24 13:45:43 GMT 53.335190 -2.851558 0 267 10
2019-04-24 13:45:32 GMT 53.335213 -2.850913 0 247 8
2019-04-24 13:45:22 GMT 53.335445 -2.850589 0 177 6
2019-04-24 13:45:16 GMT 53.335602 -2.850599 0 177 6
2019-04-24 13:45:04 GMT 53.335854 -2.850629 0 174 3
2019-04-24 13:44:15 GMT 53.335957 -2.850649 0 174 0
2019-04-24 13:43:59 GMT 53.335968 -2.850658 0 174 0
2019-04-24 13:43:04 GMT 53.335968 -2.850638 0 174 0
2019-04-24 13:42:54 GMT 53.335922 -2.850629 0 174 0
2019-04-24 13:42:45 GMT 53.335888 -2.850658 0 182 2

Making use of Plane Finder data

You are free to use the raw flight data, aircraft information and images provided in this report for your own purposes provided the data is correctly attributed to Plane Finder. We ask that you please credit Plane Finder and link to planefinder.net in close proximity to the content.

Optionally one of the following logos (no smaller then 150x24px) can be used and must link to planefinder.net

Embedding the Plane Finder map

You are welcome to embed the Plane Finder playback map on your website to offer visitors a more interactive experience. We suggest using the following HTML code:

<iframe src="//planefinder.net/data/report/U27157-G-EZWL-7700-squawk-2019-04-24/map" width="800" height="600" seamless="seamless"></iframe>

Where our data comes from

Plane Finder has a global network of data feeds and antenna radars that receive data broadcast directly from aircraft. The primary technologies used are ADS-B and MLAT. We also show feeds from the FAA and a FLARM glider feed.

Click here to find out more about the Plane Finder network.

How we collect our data